sensor_id;sensor_type;location;lat;lon;timestamp;pressure;altitude;pressure_sealevel;temperature;humidity
15932;BME280;8065;49.520;11.284;2023-06-04T00:00:12;97610.31;;;18.65;41.31
15932;BME280;8065;49.520;11.284;2023-06-04T00:02:38;97605.09;;;18.49;41.51
15932;BME280;8065;49.520;11.284;2023-06-04T00:05:05;97601.69;;;18.52;41.64
15932;BME280;8065;49.520;11.284;2023-06-04T00:07:33;97606.53;;;18.40;42.37
15932;BME280;8065;49.520;11.284;2023-06-04T00:10:00;97606.03;;;18.30;42.67
15932;BME280;8065;49.520;11.284;2023-06-04T00:12:26;97596.66;;;18.21;42.97
15932;BME280;8065;49.520;11.284;2023-06-04T00:14:53;97588.59;;;18.17;43.14
15932;BME280;8065;49.520;11.284;2023-06-04T00:17:19;97586.94;;;18.09;43.15
15932;BME280;8065;49.520;11.284;2023-06-04T00:19:46;97591.06;;;18.03;43.83
15932;BME280;8065;49.520;11.284;2023-06-04T00:22:12;97585.03;;;18.10;43.45
15932;BME280;8065;49.520;11.284;2023-06-04T00:24:40;97594.03;;;17.94;43.98
15932;BME280;8065;49.520;11.284;2023-06-04T00:27:07;97590.50;;;17.90;44.33
15932;BME280;8065;49.520;11.284;2023-06-04T00:29:34;97593.88;;;17.84;44.28
15932;BME280;8065;49.520;11.284;2023-06-04T00:32:01;97587.25;;;17.55;44.88
15932;BME280;8065;49.520;11.284;2023-06-04T00:34:27;97584.28;;;17.60;44.67
15932;BME280;8065;49.520;11.284;2023-06-04T00:36:54;97582.59;;;17.52;45.20
15932;BME280;8065;49.520;11.284;2023-06-04T00:39:20;97586.53;;;17.58;44.96
15932;BME280;8065;49.520;11.284;2023-06-04T00:41:48;97584.56;;;17.55;45.26
15932;BME280;8065;49.520;11.284;2023-06-04T00:44:15;97582.00;;;17.62;44.98
15932;BME280;8065;49.520;11.284;2023-06-04T00:46:41;97586.84;;;17.53;45.13
15932;BME280;8065;49.520;11.284;2023-06-04T00:49:10;97583.31;;;17.49;45.21
15932;BME280;8065;49.520;11.284;2023-06-04T00:51:37;97585.47;;;17.40;45.33
15932;BME280;8065;49.520;11.284;2023-06-04T00:54:04;97586.97;;;17.37;45.44
15932;BME280;8065;49.520;11.284;2023-06-04T00:56:34;97585.97;;;17.45;45.14
15932;BME280;8065;49.520;11.284;2023-06-04T00:59:04;97591.06;;;17.27;45.31
15932;BME280;8065;49.520;11.284;2023-06-04T01:01:39;97586.41;;;17.24;45.53
15932;BME280;8065;49.520;11.284;2023-06-04T01:04:21;97592.91;;;17.23;45.88
15932;BME280;8065;49.520;11.284;2023-06-04T01:06:50;97595.97;;;17.22;46.06
15932;BME280;8065;49.520;11.284;2023-06-04T01:09:20;97586.78;;;17.23;45.88
15932;BME280;8065;49.520;11.284;2023-06-04T01:11:47;97600.44;;;17.14;46.61
15932;BME280;8065;49.520;11.284;2023-06-04T01:14:15;97597.97;;;17.06;46.27
15932;BME280;8065;49.520;11.284;2023-06-04T01:16:47;97597.31;;;17.12;46.40
15932;BME280;8065;49.520;11.284;2023-06-04T01:22:29;97600.88;;;16.97;46.28
15932;BME280;8065;49.520;11.284;2023-06-04T01:25:01;97585.06;;;16.92;46.70
15932;BME280;8065;49.520;11.284;2023-06-04T01:27:29;97598.91;;;16.94;46.74
15932;BME280;8065;49.520;11.284;2023-06-04T01:29:58;97598.50;;;16.92;46.46
15932;BME280;8065;49.520;11.284;2023-06-04T01:32:26;97600.13;;;16.77;46.93
15932;BME280;8065;49.520;11.284;2023-06-04T01:34:54;97603.28;;;16.63;47.26
15932;BME280;8065;49.520;11.284;2023-06-04T01:37:20;97595.69;;;16.65;47.18
15932;BME280;8065;49.520;11.284;2023-06-04T01:39:47;97595.34;;;16.67;47.08
15932;BME280;8065;49.520;11.284;2023-06-04T01:42:13;97603.28;;;16.63;47.21
15932;BME280;8065;49.520;11.284;2023-06-04T01:44:40;97607.22;;;16.66;47.06
15932;BME280;8065;49.520;11.284;2023-06-04T01:47:08;97607.03;;;16.59;47.24
15932;BME280;8065;49.520;11.284;2023-06-04T01:49:34;97601.75;;;16.62;47.56
15932;BME280;8065;49.520;11.284;2023-06-04T01:52:03;97607.22;;;16.66;47.39
15932;BME280;8065;49.520;11.284;2023-06-04T01:54:30;97599.22;;;16.69;47.89
15932;BME280;8065;49.520;11.284;2023-06-04T01:56:59;97609.66;;;16.75;47.31
15932;BME280;8065;49.520;11.284;2023-06-04T01:59:26;97607.22;;;16.66;47.72
15932;BME280;8065;49.520;11.284;2023-06-04T02:01:52;97610.78;;;16.54;47.97
15932;BME280;8065;49.520;11.284;2023-06-04T02:04:20;97609.84;;;16.47;47.78
15932;BME280;8065;49.520;11.284;2023-06-04T02:06:48;97606.03;;;16.48;47.41
15932;BME280;8065;49.520;11.284;2023-06-04T02:09:14;97604.22;;;16.32;47.98
15932;BME280;8065;49.520;11.284;2023-06-04T02:11:41;97609.81;;;16.43;47.73
15932;BME280;8065;49.520;11.284;2023-06-04T02:14:08;97617.06;;;16.23;47.79
15932;BME280;8065;49.520;11.284;2023-06-04T02:16:35;97606.69;;;16.22;47.90
15932;BME280;8065;49.520;11.284;2023-06-04T02:19:03;97615.28;;;16.12;48.09
15932;BME280;8065;49.520;11.284;2023-06-04T02:21:31;97618.84;;;16.00;48.20
15932;BME280;8065;49.520;11.284;2023-06-04T02:23:58;97621.97;;;16.02;49.00
15932;BME280;8065;49.520;11.284;2023-06-04T02:26:24;97620.44;;;15.85;49.22
15932;BME280;8065;49.520;11.284;2023-06-04T02:28:51;97618.50;;;16.01;49.25
15932;BME280;8065;49.520;11.284;2023-06-04T02:31:17;97618.84;;;16.00;49.69
15932;BME280;8065;49.520;11.284;2023-06-04T02:33:44;97622.66;;;15.99;48.79
15932;BME280;8065;49.520;11.284;2023-06-04T02:36:10;97628.63;;;15.92;48.63
15932;BME280;8065;49.520;11.284;2023-06-04T02:38:38;97622.69;;;15.83;48.43
15932;BME280;8065;49.520;11.284;2023-06-04T02:41:05;97621.91;;;15.67;49.40
15932;BME280;8065;49.520;11.284;2023-06-04T02:43:32;97622.53;;;15.60;49.21
15932;BME280;8065;49.520;11.284;2023-06-04T02:45:58;97620.63;;;15.61;49.34
15932;BME280;8065;49.520;11.284;2023-06-04T02:48:25;97621.06;;;15.63;49.21
15932;BME280;8065;49.520;11.284;2023-06-04T02:50:51;97623.69;;;15.59;50.31
15932;BME280;8065;49.520;11.284;2023-06-04T02:53:18;97626.16;;;15.52;50.66
15932;BME280;8065;49.520;11.284;2023-06-04T02:55:47;97626.25;;;15.56;50.26
15932;BME280;8065;49.520;11.284;2023-06-04T02:58:14;97617.59;;;15.47;50.44
15932;BME280;8065;49.520;11.284;2023-06-04T03:00:41;97627.00;;;15.40;50.22
15932;BME280;8065;49.520;11.284;2023-06-04T03:03:08;97630.19;;;15.30;50.12
15932;BME280;8065;49.520;11.284;2023-06-04T03:05:34;97618.13;;;15.36;49.55
15932;BME280;8065;49.520;11.284;2023-06-04T03:08:02;97629.59;;;15.37;49.66
15932;BME280;8065;49.520;11.284;2023-06-04T03:10:29;97631.06;;;15.34;50.12
15932;BME280;8065;49.520;11.284;2023-06-04T03:12:57;97624.84;;;15.30;50.13
15932;BME280;8065;49.520;11.284;2023-06-04T03:15:24;97630.97;;;15.31;50.68
15932;BME280;8065;49.520;11.284;2023-06-04T03:17:50;97631.56;;;15.24;51.04
15932;BME280;8065;49.520;11.284;2023-06-04T03:20:17;97626.22;;;15.24;51.18
15932;BME280;8065;49.520;11.284;2023-06-04T03:22:44;97631.22;;;15.26;50.80
15932;BME280;8065;49.520;11.284;2023-06-04T03:25:11;97632.63;;;15.35;50.52
15932;BME280;8065;49.520;11.284;2023-06-04T03:27:37;97639.78;;;15.31;51.19
15932;BME280;8065;49.520;11.284;2023-06-04T03:30:07;97639.00;;;15.31;50.66
15932;BME280;8065;49.520;11.284;2023-06-04T03:32:34;97637.03;;;15.28;51.50
15932;BME280;8065;49.520;11.284;2023-06-04T03:35:00;97637.03;;;15.28;51.40
15932;BME280;8065;49.520;11.284;2023-06-04T03:37:28;97638.16;;;15.27;51.03
15932;BME280;8065;49.520;11.284;2023-06-04T03:39:54;97641.41;;;15.20;51.59
15932;BME280;8065;49.520;11.284;2023-06-04T03:42:21;97643.47;;;15.11;51.40
15932;BME280;8065;49.520;11.284;2023-06-04T03:44:47;97648.16;;;15.14;51.53
15932;BME280;8065;49.520;11.284;2023-06-04T03:47:15;97645.22;;;15.19;51.26
15932;BME280;8065;49.520;11.284;2023-06-04T03:49:42;97647.56;;;15.21;51.10
15932;BME280;8065;49.520;11.284;2023-06-04T03:52:08;97648.31;;;15.21;50.96
15932;BME280;8065;49.520;11.284;2023-06-04T03:54:35;97654.97;;;15.12;51.13
15932;BME280;8065;49.520;11.284;2023-06-04T03:57:01;97647.38;;;15.14;51.01
15932;BME280;8065;49.520;11.284;2023-06-04T03:59:28;97646.69;;;15.17;50.97
15932;BME280;8065;49.520;11.284;2023-06-04T04:01:54;97649.78;;;15.19;51.58
15932;BME280;8065;49.520;11.284;2023-06-04T04:04:22;97653.88;;;15.28;51.41
15932;BME280;8065;49.520;11.284;2023-06-04T04:06:49;97647.81;;;15.31;51.67
15932;BME280;8065;49.520;11.284;2023-06-04T04:09:16;97644.72;;;15.29;51.40
15932;BME280;8065;49.520;11.284;2023-06-04T04:11:43;97648.00;;;15.38;51.49
15932;BME280;8065;49.520;11.284;2023-06-04T04:14:09;97644.19;;;15.39;51.55
15932;BME280;8065;49.520;11.284;2023-06-04T04:16:36;97651.81;;;15.37;51.94
15932;BME280;8065;49.520;11.284;2023-06-04T04:19:02;97652.25;;;15.39;51.38
15932;BME280;8065;49.520;11.284;2023-06-04T04:21:30;97650.59;;;15.35;52.00
15932;BME280;8065;49.520;11.284;2023-06-04T04:23:57;97653.09;;;15.28;51.98
15932;BME280;8065;49.520;11.284;2023-06-04T04:26:23;97654.22;;;15.43;51.80
15932;BME280;8065;49.520;11.284;2023-06-04T04:28:52;97643.44;;;15.55;52.11
15932;BME280;8065;49.520;11.284;2023-06-04T04:31:23;97655.09;;;15.47;52.16
15932;BME280;8065;49.520;11.284;2023-06-04T04:33:50;97645.69;;;15.53;52.45
15932;BME280;8065;49.520;11.284;2023-06-04T04:36:17;97650.09;;;15.61;51.84
15932;BME280;8065;49.520;11.284;2023-06-04T04:38:45;97645.69;;;15.68;52.02
15932;BME280;8065;49.520;11.284;2023-06-04T04:41:19;97654.06;;;15.67;51.68
15932;BME280;8065;49.520;11.284;2023-06-04T04:43:46;97650.88;;;15.61;52.10
15932;BME280;8065;49.520;11.284;2023-06-04T04:46:12;97653.91;;;15.60;51.79
15932;BME280;8065;49.520;11.284;2023-06-04T04:48:39;97659.06;;;15.53;51.87
15932;BME280;8065;49.520;11.284;2023-06-04T04:51:07;97660.88;;;15.49;52.17
15932;BME280;8065;49.520;11.284;2023-06-04T04:53:34;97658.91;;;15.46;51.79
15932;BME280;8065;49.520;11.284;2023-06-04T04:56:02;97671.72;;;15.24;52.21
15932;BME280;8065;49.520;11.284;2023-06-04T04:58:29;97665.03;;;15.62;51.82
15932;BME280;8065;49.520;11.284;2023-06-04T05:00:56;97660.03;;;15.76;51.76
15932;BME280;8065;49.520;11.284;2023-06-04T05:03:22;97667.72;;;15.93;51.62
15932;BME280;8065;49.520;11.284;2023-06-04T05:05:49;97673.13;;;16.13;51.30
15932;BME280;8065;49.520;11.284;2023-06-04T05:08:15;97672.25;;;16.24;52.01
15932;BME280;8065;49.520;11.284;2023-06-04T05:10:42;97669.75;;;16.16;51.34
15932;BME280;8065;49.520;11.284;2023-06-04T05:13:10;97671.47;;;16.24;51.98
15932;BME280;8065;49.520;11.284;2023-06-04T05:15:36;97674.22;;;16.27;51.77
15932;BME280;8065;49.520;11.284;2023-06-04T05:18:05;97678.97;;;16.34;51.90
15932;BME280;8065;49.520;11.284;2023-06-04T05:20:31;97686.94;;;16.65;51.78
15932;BME280;8065;49.520;11.284;2023-06-04T05:22:58;97676.28;;;16.69;51.29
15932;BME280;8065;49.520;11.284;2023-06-04T05:25:25;97684.91;;;16.43;52.48
15932;BME280;8065;49.520;11.284;2023-06-04T05:27:56;97678.25;;;15.86;53.80
15932;BME280;8065;49.520;11.284;2023-06-04T05:30:24;97691.56;;;15.98;54.43
15932;BME280;8065;49.520;11.284;2023-06-04T05:32:51;97689.59;;;15.95;54.15
15932;BME280;8065;49.520;11.284;2023-06-04T05:35:18;97690.25;;;16.08;53.46
15932;BME280;8065;49.520;11.284;2023-06-04T05:37:45;97685.94;;;16.03;53.68
15932;BME280;8065;49.520;11.284;2023-06-04T05:40:19;97687.50;;;17.13;52.09
15932;BME280;8065;49.520;11.284;2023-06-04T05:42:46;97692.34;;;17.50;51.06
15932;BME280;8065;49.520;11.284;2023-06-04T05:45:13;97689.09;;;17.60;50.98
15932;BME280;8065;49.520;11.284;2023-06-04T05:47:41;97692.81;;;17.97;50.49
15932;BME280;8065;49.520;11.284;2023-06-04T05:50:08;97692.91;;;18.05;50.18
15932;BME280;8065;49.520;11.284;2023-06-04T05:52:35;97691.25;;;18.23;49.74
15932;BME280;8065;49.520;11.284;2023-06-04T05:55:02;97695.91;;;18.26;49.60
15932;BME280;8065;49.520;11.284;2023-06-04T05:57:28;97696.59;;;18.19;50.09
15932;BME280;8065;49.520;11.284;2023-06-04T05:59:55;97691.00;;;17.59;50.80
15932;BME280;8065;49.520;11.284;2023-06-04T06:02:21;97693.00;;;17.43;51.49
15932;BME280;8065;49.520;11.284;2023-06-04T06:04:49;97691.66;;;17.53;51.62
15932;BME280;8065;49.520;11.284;2023-06-04T06:07:16;97700.41;;;17.69;51.88
15932;BME280;8065;49.520;11.284;2023-06-04T06:09:44;97705.63;;;17.62;52.39
15932;BME280;8065;49.520;11.284;2023-06-04T06:12:11;97704.34;;;17.75;51.40
15932;BME280;8065;49.520;11.284;2023-06-04T06:14:37;97696.94;;;17.91;50.82
15932;BME280;8065;49.520;11.284;2023-06-04T06:17:04;97702.75;;;18.76;49.24
15932;BME280;8065;49.520;11.284;2023-06-04T06:19:31;97699.78;;;19.18;48.95
15932;BME280;8065;49.520;11.284;2023-06-04T06:21:59;97696.59;;;19.09;49.08
15932;BME280;8065;49.520;11.284;2023-06-04T06:24:26;97701.16;;;19.39;48.25
15932;BME280;8065;49.520;11.284;2023-06-04T06:26:52;97695.66;;;19.28;48.43
15932;BME280;8065;49.520;11.284;2023-06-04T06:29:19;97704.09;;;19.60;47.60
15932;BME280;8065;49.520;11.284;2023-06-04T06:31:46;97701.59;;;19.85;47.56
15932;BME280;8065;49.520;11.284;2023-06-04T06:34:12;97706.59;;;18.75;49.68
15932;BME280;8065;49.520;11.284;2023-06-04T06:36:39;97701.91;;;19.39;48.62
15932;BME280;8065;49.520;11.284;2023-06-04T06:39:07;97705.16;;;19.52;48.50
15932;BME280;8065;49.520;11.284;2023-06-04T06:41:33;97708.88;;;19.77;47.77
15932;BME280;8065;49.520;11.284;2023-06-04T06:44:00;97714.38;;;19.91;47.84
15932;BME280;8065;49.520;11.284;2023-06-04T06:46:27;97716.94;;;19.77;48.05
15932;BME280;8065;49.520;11.284;2023-06-04T06:48:53;97714.91;;;20.11;47.58
15932;BME280;8065;49.520;11.284;2023-06-04T06:51:20;97707.88;;;20.00;47.51
15932;BME280;8065;49.520;11.284;2023-06-04T06:53:49;97713.78;;;20.16;47.23
15932;BME280;8065;49.520;11.284;2023-06-04T06:56:17;97711.28;;;20.41;47.26
15932;BME280;8065;49.520;11.284;2023-06-04T06:58:44;97710.94;;;20.49;47.24
15932;BME280;8065;49.520;11.284;2023-06-04T07:01:11;97716.63;;;20.37;47.19
15932;BME280;8065;49.520;11.284;2023-06-04T07:03:37;97719.16;;;20.71;46.37
15932;BME280;8065;49.520;11.284;2023-06-04T07:06:05;97721.56;;;20.97;46.61
15932;BME280;8065;49.520;11.284;2023-06-04T07:08:31;97714.69;;;21.10;46.65
15932;BME280;8065;49.520;11.284;2023-06-04T07:13:27;97722.41;;;21.08;46.22
15932;BME280;8065;49.520;11.284;2023-06-04T07:15:54;97717.72;;;20.98;46.35
15932;BME280;8065;49.520;11.284;2023-06-04T07:18:20;97715.44;;;21.11;46.20
15932;BME280;8065;49.520;11.284;2023-06-04T07:20:47;97720.81;;;20.97;46.43
15932;BME280;8065;49.520;11.284;2023-06-04T07:23:14;97722.13;;;21.31;46.03
15932;BME280;8065;49.520;11.284;2023-06-04T07:25:41;97710.56;;;21.45;46.82
15932;BME280;8065;49.520;11.284;2023-06-04T07:28:07;97704.38;;;21.69;46.13
15932;BME280;8065;49.520;11.284;2023-06-04T07:30:35;97707.88;;;21.87;45.79
15932;BME280;8065;49.520;11.284;2023-06-04T07:33:02;97707.50;;;21.53;45.79
15932;BME280;8065;49.520;11.284;2023-06-04T07:35:28;97711.38;;;21.84;45.40
15932;BME280;8065;49.520;11.284;2023-06-04T07:37:55;97705.94;;;21.56;45.71
15932;BME280;8065;49.520;11.284;2023-06-04T07:40:22;97710.59;;;21.59;44.93
15932;BME280;8065;49.520;11.284;2023-06-04T07:42:48;97705.53;;;21.40;45.51
15932;BME280;8065;49.520;11.284;2023-06-04T07:45:15;97704.03;;;21.60;45.77
15932;BME280;8065;49.520;11.284;2023-06-04T07:47:43;97705.56;;;21.50;44.81
15932;BME280;8065;49.520;11.284;2023-06-04T07:50:10;97712.53;;;21.83;45.67
15932;BME280;8065;49.520;11.284;2023-06-04T07:52:37;97702.88;;;22.11;45.28
15932;BME280;8065;49.520;11.284;2023-06-04T07:55:04;97703.25;;;22.31;45.09
15932;BME280;8065;49.520;11.284;2023-06-04T07:57:31;97702.84;;;22.46;45.17
15932;BME280;8065;49.520;11.284;2023-06-04T07:59:58;97706.63;;;22.81;44.66
15932;BME280;8065;49.520;11.284;2023-06-04T08:02:24;97706.94;;;22.97;44.08
15932;BME280;8065;49.520;11.284;2023-06-04T08:04:52;97705.09;;;22.62;43.83
15932;BME280;8065;49.520;11.284;2023-06-04T08:07:19;97708.97;;;22.57;44.89
15932;BME280;8065;49.520;11.284;2023-06-04T08:09:45;97700.03;;;22.82;44.03
15932;BME280;8065;49.520;11.284;2023-06-04T08:12:12;97702.28;;;22.98;44.95
15932;BME280;8065;49.520;11.284;2023-06-04T08:14:38;97700.56;;;23.36;44.12
15932;BME280;8065;49.520;11.284;2023-06-04T08:17:05;97692.28;;;23.57;43.63
15932;BME280;8065;49.520;11.284;2023-06-04T08:19:31;97692.56;;;23.73;43.79
15932;BME280;8065;49.520;11.284;2023-06-04T08:21:59;97694.97;;;23.64;43.79
15932;BME280;8065;49.520;11.284;2023-06-04T08:24:26;97696.91;;;23.60;43.19
15932;BME280;8065;49.520;11.284;2023-06-04T08:26:52;97703.56;;;23.48;43.68
15932;BME280;8065;49.520;11.284;2023-06-04T08:29:19;97692.63;;;23.66;43.70
15932;BME280;8065;49.520;11.284;2023-06-04T08:31:45;97695.75;;;23.61;42.73
15932;BME280;8065;49.520;11.284;2023-06-04T08:34:12;97688.69;;;23.74;44.35
15932;BME280;8065;49.520;11.284;2023-06-04T08:36:38;97694.25;;;23.49;42.15
15932;BME280;8065;49.520;11.284;2023-06-04T08:39:07;97692.28;;;23.57;42.78
15932;BME280;8065;49.520;11.284;2023-06-04T08:41:41;97694.81;;;23.85;42.52
15932;BME280;8065;49.520;11.284;2023-06-04T08:44:09;97699.19;;;24.17;42.26
15932;BME280;8065;49.520;11.284;2023-06-04T08:46:37;97696.50;;;24.55;40.89
15932;BME280;8065;49.520;11.284;2023-06-04T08:49:05;97700.34;;;24.57;42.27
15932;BME280;8065;49.520;11.284;2023-06-04T08:51:33;97698.13;;;24.82;40.83
15932;BME280;8065;49.520;11.284;2023-06-04T08:54:03;97695.81;;;24.81;40.88
15932;BME280;8065;49.520;11.284;2023-06-04T08:56:32;97695.16;;;24.70;41.98
15932;BME280;8065;49.520;11.284;2023-06-04T08:59:00;97696.47;;;24.92;41.30
15932;BME280;8065;49.520;11.284;2023-06-04T09:01:27;97694.81;;;25.29;41.45
15932;BME280;8065;49.520;11.284;2023-06-04T09:03:54;97685.78;;;25.62;41.00
15932;BME280;8065;49.520;11.284;2023-06-04T09:06:23;97693.47;;;25.13;40.22
15932;BME280;8065;49.520;11.284;2023-06-04T09:08:50;97695.59;;;25.56;39.83
15932;BME280;8065;49.520;11.284;2023-06-04T09:11:17;97693.59;;;25.60;39.19
15932;BME280;8065;49.520;11.284;2023-06-04T09:13:47;97693.66;;;25.57;40.08
15932;BME280;8065;49.520;11.284;2023-06-04T09:16:13;97697.41;;;25.12;39.12
15932;BME280;8065;49.520;11.284;2023-06-04T09:18:40;97699.78;;;25.64;39.50
15932;BME280;8065;49.520;11.284;2023-06-04T09:21:08;97704.38;;;25.71;38.65
15932;BME280;8065;49.520;11.284;2023-06-04T09:23:35;97693.41;;;25.74;39.14
15932;BME280;8065;49.520;11.284;2023-06-04T09:26:08;97696.16;;;25.98;38.98
15932;BME280;8065;49.520;11.284;2023-06-04T09:28:35;97698.19;;;25.94;37.69
15932;BME280;8065;49.520;11.284;2023-06-04T09:31:03;97695.31;;;26.01;38.58
15932;BME280;8065;49.520;11.284;2023-06-04T09:33:29;97696.47;;;26.23;38.94
15932;BME280;8065;49.520;11.284;2023-06-04T09:35:56;97700.03;;;26.20;37.96
15932;BME280;8065;49.520;11.284;2023-06-04T09:38:23;97696.72;;;26.09;37.57
15932;BME280;8065;49.520;11.284;2023-06-04T09:40:50;97698.09;;;26.21;38.01
15932;BME280;8065;49.520;11.284;2023-06-04T09:43:22;97697.00;;;25.95;38.11
15932;BME280;8065;49.520;11.284;2023-06-04T09:45:49;97697.94;;;25.00;38.13
15932;BME280;8065;49.520;11.284;2023-06-04T09:48:21;97696.47;;;25.23;37.41
15932;BME280;8065;49.520;11.284;2023-06-04T09:50:48;97692.06;;;25.59;37.31
15932;BME280;8065;49.520;11.284;2023-06-04T09:53:14;97691.88;;;25.73;37.34
15932;BME280;8065;49.520;11.284;2023-06-04T09:55:42;97688.78;;;26.18;38.09
15932;BME280;8065;49.520;11.284;2023-06-04T09:58:10;97693.69;;;26.27;37.40
15932;BME280;8065;49.520;11.284;2023-06-04T10:00:37;97688.56;;;26.32;37.01
15932;BME280;8065;49.520;11.284;2023-06-04T10:03:04;97685.53;;;26.27;36.89
15932;BME280;8065;49.520;11.284;2023-06-04T10:05:33;97687.72;;;26.35;36.48
15932;BME280;8065;49.520;11.284;2023-06-04T10:08:03;97682.38;;;26.71;37.44
15932;BME280;8065;49.520;11.284;2023-06-04T10:10:30;97688.44;;;26.39;35.62
15932;BME280;8065;49.520;11.284;2023-06-04T10:13:02;97683.50;;;26.74;35.68
15932;BME280;8065;49.520;11.284;2023-06-04T10:15:31;97681.06;;;26.60;35.76
15932;BME280;8065;49.520;11.284;2023-06-04T10:17:59;97680.38;;;26.92;35.98
15932;BME280;8065;49.520;11.284;2023-06-04T10:20:27;97688.03;;;26.61;36.64
15932;BME280;8065;49.520;11.284;2023-06-04T10:22:56;97684.53;;;27.00;36.30
15932;BME280;8065;49.520;11.284;2023-06-04T10:25:23;97685.72;;;26.59;35.88
15932;BME280;8065;49.520;11.284;2023-06-04T10:27:51;97684.81;;;26.66;35.92
15932;BME280;8065;49.520;11.284;2023-06-04T10:30:18;97685.91;;;26.88;35.88
15932;BME280;8065;49.520;11.284;2023-06-04T10:32:45;97691.19;;;26.99;34.71
15932;BME280;8065;49.520;11.284;2023-06-04T10:35:12;97678.41;;;26.76;35.18
15932;BME280;8065;49.520;11.284;2023-06-04T10:37:40;97676.81;;;27.15;34.71
15932;BME280;8065;49.520;11.284;2023-06-04T10:40:08;97676.88;;;27.47;34.63
15932;BME280;8065;49.520;11.284;2023-06-04T10:42:40;97665.50;;;27.68;35.08
15932;BME280;8065;49.520;11.284;2023-06-04T10:45:08;97665.28;;;27.92;34.96
15932;BME280;8065;49.520;11.284;2023-06-04T10:47:35;97662.19;;;28.06;34.24
15932;BME280;8065;49.520;11.284;2023-06-04T10:50:08;97671.09;;;27.94;34.32
15932;BME280;8065;49.520;11.284;2023-06-04T10:52:36;97661.78;;;28.24;34.46
15932;BME280;8065;49.520;11.284;2023-06-04T10:55:03;97657.06;;;28.08;34.03
15932;BME280;8065;49.520;11.284;2023-06-04T10:57:31;97659.31;;;27.97;33.62
15932;BME280;8065;49.520;11.284;2023-06-04T10:59:59;97664.06;;;27.28;34.33
15932;BME280;8065;49.520;11.284;2023-06-04T11:02:28;97667.50;;;27.48;35.08
15932;BME280;8065;49.520;11.284;2023-06-04T11:04:59;97667.31;;;28.04;35.69
15932;BME280;8065;49.520;11.284;2023-06-04T11:07:28;97657.75;;;28.28;34.45
15932;BME280;8065;49.520;11.284;2023-06-04T11:09:55;97661.00;;;28.52;34.18
15932;BME280;8065;49.520;11.284;2023-06-04T11:12:21;97647.69;;;28.09;34.30
15932;BME280;8065;49.520;11.284;2023-06-04T11:14:56;97653.88;;;28.42;33.81
15932;BME280;8065;49.520;11.284;2023-06-04T11:17:23;97646.03;;;28.57;33.41
15932;BME280;8065;49.520;11.284;2023-06-04T11:19:50;97658.94;;;28.11;33.97
15932;BME280;8065;49.520;11.284;2023-06-04T11:22:20;97660.63;;;27.60;34.35
15932;BME280;8065;49.520;11.284;2023-06-04T11:24:47;97658.56;;;28.42;34.30
15932;BME280;8065;49.520;11.284;2023-06-04T11:27:13;97658.13;;;28.43;33.80
15932;BME280;8065;49.520;11.284;2023-06-04T11:29:40;97661.25;;;28.70;33.38
15932;BME280;8065;49.520;11.284;2023-06-04T11:32:08;97647.78;;;28.92;32.90
15932;BME280;8065;49.520;11.284;2023-06-04T11:34:35;97649.63;;;28.95;32.24
15932;BME280;8065;49.520;11.284;2023-06-04T11:37:09;97647.22;;;28.97;32.85
15932;BME280;8065;49.520;11.284;2023-06-04T11:39:36;97639.59;;;29.18;33.05
15932;BME280;8065;49.520;11.284;2023-06-04T11:42:05;97644.19;;;28.66;34.18
15932;BME280;8065;49.520;11.284;2023-06-04T11:44:32;97643.94;;;28.48;33.92
15932;BME280;8065;49.520;11.284;2023-06-04T11:46:59;97634.66;;;28.71;33.75
15932;BME280;8065;49.520;11.284;2023-06-04T11:49:27;97644.69;;;28.90;33.16
15932;BME280;8065;49.520;11.284;2023-06-04T11:51:54;97648.56;;;29.06;34.65
15932;BME280;8065;49.520;11.284;2023-06-04T11:54:21;97635.66;;;29.19;32.72
15932;BME280;8065;49.520;11.284;2023-06-04T11:56:49;97626.25;;;29.45;32.65
15932;BME280;8065;49.520;11.284;2023-06-04T11:59:16;97628.19;;;29.57;32.59
15932;BME280;8065;49.520;11.284;2023-06-04T12:01:44;97623.69;;;29.51;32.96
15932;BME280;8065;49.520;11.284;2023-06-04T12:04:12;97629.50;;;29.15;33.23
15932;BME280;8065;49.520;11.284;2023-06-04T12:06:50;97625.34;;;28.97;33.93
15932;BME280;8065;49.520;11.284;2023-06-04T12:09:20;97619.75;;;29.26;33.26
15932;BME280;8065;49.520;11.284;2023-06-04T12:11:47;97634.38;;;28.82;32.87
15932;BME280;8065;49.520;11.284;2023-06-04T12:14:16;97628.19;;;29.32;33.05
15932;BME280;8065;49.520;11.284;2023-06-04T12:16:43;97623.28;;;28.60;33.85
15932;BME280;8065;49.520;11.284;2023-06-04T12:19:11;97623.72;;;29.25;34.08
15932;BME280;8065;49.520;11.284;2023-06-04T12:21:39;97615.91;;;28.98;33.44
15932;BME280;8065;49.520;11.284;2023-06-04T12:24:08;97617.44;;;29.50;33.01
15932;BME280;8065;49.520;11.284;2023-06-04T12:26:36;97611.75;;;29.57;32.42
15932;BME280;8065;49.520;11.284;2023-06-04T12:29:10;97614.72;;;29.25;33.35
15932;BME280;8065;49.520;11.284;2023-06-04T12:31:38;97617.69;;;29.43;33.16
15932;BME280;8065;49.520;11.284;2023-06-04T12:34:04;97616.97;;;29.77;32.97
15932;BME280;8065;49.520;11.284;2023-06-04T12:36:31;97616.22;;;30.11;32.72
15932;BME280;8065;49.520;11.284;2023-06-04T12:39:02;97613.19;;;29.49;32.72
15932;BME280;8065;49.520;11.284;2023-06-04T12:41:30;97609.75;;;29.58;33.76
15932;BME280;8065;49.520;11.284;2023-06-04T12:43:57;97612.06;;;29.59;32.55
15932;BME280;8065;49.520;11.284;2023-06-04T12:46:23;97617.56;;;29.94;32.47
15932;BME280;8065;49.520;11.284;2023-06-04T12:48:51;97602.44;;;30.02;32.32
15932;BME280;8065;49.520;11.284;2023-06-04T12:51:18;97607.81;;;29.93;32.51
15932;BME280;8065;49.520;11.284;2023-06-04T12:53:45;97615.06;;;29.27;32.03
15932;BME280;8065;49.520;11.284;2023-06-04T12:56:14;97607.03;;;29.58;31.65
15932;BME280;8065;49.520;11.284;2023-06-04T12:58:41;97598.72;;;29.96;31.98
15932;BME280;8065;49.520;11.284;2023-06-04T13:01:07;97600.16;;;29.88;31.65
15932;BME280;8065;49.520;11.284;2023-06-04T13:03:36;97609.91;;;29.89;31.24
15932;BME280;8065;49.520;11.284;2023-06-04T13:06:03;97596.53;;;29.91;31.83